createdAt,value
2022-10-07T00:01:24.828Z,5.20
2022-10-07T00:03:27.915Z,5.82
2022-10-07T00:05:29.491Z,5.68
2022-10-07T00:07:31.160Z,5.72
2022-10-07T00:09:33.220Z,5.53
2022-10-07T00:11:34.921Z,5.60
2022-10-07T00:13:41.299Z,5.45
2022-10-07T00:15:42.935Z,5.57
2022-10-07T00:17:45.240Z,6.35
2022-10-07T00:19:47.306Z,6.10
2022-10-07T00:21:48.983Z,5.60
2022-10-07T00:23:50.972Z,5.55
2022-10-07T00:25:52.612Z,6.25
2022-10-07T00:27:54.300Z,5.90
2022-10-07T00:29:55.891Z,5.82
2022-10-07T00:31:57.570Z,6.63
2022-10-07T00:33:59.507Z,6.00
2022-10-07T00:36:01.128Z,5.43
2022-10-07T00:38:03.008Z,5.38
2022-10-07T00:40:05.045Z,5.45
2022-10-07T00:42:06.713Z,6.10
2022-10-07T00:44:27.177Z,5.38
2022-10-07T00:46:39.804Z,6.05
2022-10-07T00:48:42.663Z,5.43
2022-10-07T00:50:44.678Z,5.82
2022-10-07T00:52:50.438Z,5.95
2022-10-07T00:54:53.690Z,5.78
2022-10-07T00:56:55.362Z,6.10
2022-10-07T00:58:59.383Z,6.47
2022-10-07T01:01:01.487Z,5.95
2022-10-07T01:03:04.371Z,5.88
2022-10-07T01:05:07.874Z,5.97
2022-10-07T01:07:09.803Z,6.13
2022-10-07T01:09:11.875Z,6.05
2022-10-07T01:11:22.037Z,5.80
2022-10-07T01:13:39.373Z,6.18
2022-10-07T01:15:49.515Z,5.60
2022-10-07T01:17:59.269Z,5.72
2022-10-07T01:20:19.885Z,5.20
2022-10-07T01:22:39.046Z,6.00
2022-10-07T01:24:45.573Z,5.72
2022-10-07T01:27:22.940Z,5.85
2022-10-07T01:29:30.515Z,6.10
2022-10-07T01:31:57.934Z,5.15
2022-10-07T01:34:00.284Z,5.68
2022-10-07T01:36:09.012Z,5.75
2022-10-07T01:38:12.194Z,5.55
2022-10-07T01:40:17.031Z,5.65
2022-10-07T01:42:20.128Z,5.70
2022-10-07T01:44:21.822Z,5.40
2022-10-07T01:46:25.774Z,6.57
2022-10-07T01:48:27.424Z,6.05
2022-10-07T01:50:30.101Z,6.00
2022-10-07T01:52:34.637Z,6.43
2022-10-07T01:55:00.766Z,6.05
2022-10-07T01:57:05.366Z,6.03
2022-10-07T01:59:07.135Z,5.82
2022-10-07T02:01:19.173Z,6.20
2022-10-07T02:03:30.181Z,6.35
2022-10-07T02:05:49.130Z,6.75
2022-10-07T02:08:24.768Z,6.25
2022-10-07T02:10:41.702Z,6.30
2022-10-07T02:12:56.364Z,6.35
2022-10-07T02:15:10.641Z,6.18
2022-10-07T02:19:19.857Z,6.13
2022-10-07T02:21:27.226Z,5.50
2022-10-07T02:23:29.632Z,5.88
2022-10-07T02:25:36.101Z,5.85
2022-10-07T02:27:38.800Z,6.28
2022-10-07T02:29:41.289Z,6.28
2022-10-07T02:31:43.587Z,6.38
2022-10-07T02:33:47.205Z,6.47
2022-10-07T02:35:54.897Z,6.93
2022-10-07T02:37:58.562Z,6.60
2022-10-07T02:40:01.003Z,6.40
2022-10-07T02:42:05.761Z,6.80
2022-10-07T02:44:15.624Z,6.82
2022-10-07T02:46:24.809Z,6.97
2022-10-07T02:48:28.839Z,6.95
2022-10-07T02:50:37.851Z,6.47
2022-10-07T02:52:40.391Z,5.90
2022-10-07T02:54:46.205Z,6.50
2022-10-07T02:56:48.964Z,6.75
2022-10-07T02:58:51.292Z,6.60
2022-10-07T03:00:58.032Z,6.53
2022-10-07T03:03:05.207Z,6.90
2022-10-07T03:05:08.603Z,6.50
2022-10-07T03:07:12.222Z,6.65
2022-10-07T03:09:14.011Z,6.22
2022-10-07T03:11:15.709Z,7.28
2022-10-07T03:13:17.390Z,6.85
2022-10-07T03:15:19.239Z,6.35
2022-10-07T03:17:20.853Z,6.80
2022-10-07T03:19:22.591Z,7.15
2022-10-07T03:21:25.288Z,6.38
2022-10-07T03:23:29.237Z,6.78
2022-10-07T03:25:30.828Z,6.22
2022-10-07T03:27:32.486Z,5.70
2022-10-07T03:29:35.087Z,7.43
2022-10-07T03:31:37.108Z,5.97
2022-10-07T03:33:38.826Z,6.80
2022-10-07T03:35:40.459Z,7.30
2022-10-07T03:37:42.620Z,6.78
2022-10-07T03:39:44.572Z,7.30
2022-10-07T03:41:48.516Z,6.43
2022-10-07T03:43:50.198Z,8.38
2022-10-07T03:45:52.143Z,6.05
2022-10-07T03:47:53.736Z,7.35
2022-10-07T03:49:56.910Z,6.18
2022-10-07T03:52:00.235Z,7.07
2022-10-07T03:54:01.921Z,7.97
2022-10-07T03:56:03.599Z,7.35
2022-10-07T03:58:05.242Z,6.88
2022-10-07T04:00:07.473Z,6.85
2022-10-07T04:02:09.609Z,6.70
2022-10-07T04:04:12.160Z,7.03
2022-10-07T04:06:14.382Z,7.18
2022-10-07T04:08:17.459Z,7.10
2022-10-07T04:10:19.745Z,6.60
2022-10-07T04:12:21.383Z,6.38
2022-10-07T04:14:22.955Z,6.72
2022-10-07T04:16:24.735Z,7.15
2022-10-07T04:18:26.376Z,6.60
2022-10-07T04:20:28.033Z,6.72
2022-10-07T04:22:31.594Z,7.20
2022-10-07T04:24:33.288Z,6.88
2022-10-07T04:26:34.943Z,6.70
2022-10-07T04:28:36.901Z,6.13
2022-10-07T04:30:40.158Z,6.43
2022-10-07T04:32:41.851Z,6.47
2022-10-07T04:34:43.475Z,7.60
2022-10-07T04:36:45.033Z,7.05
2022-10-07T04:38:53.265Z,6.75
2022-10-07T04:40:54.826Z,7.22
2022-10-07T04:43:14.937Z,7.25
2022-10-07T04:45:16.592Z,6.72
2022-10-07T04:47:18.208Z,7.70
2022-10-07T04:49:19.753Z,7.43
2022-10-07T04:51:22.994Z,7.25
2022-10-07T04:53:25.003Z,6.85
2022-10-07T04:55:26.621Z,7.50
2022-10-07T04:57:28.343Z,7.22
2022-10-07T04:59:30.294Z,7.72
2022-10-07T05:01:32.052Z,9.38
2022-10-07T05:03:36.444Z,9.45
2022-10-07T05:05:41.716Z,10.30
2022-10-07T05:07:43.554Z,9.00
2022-10-07T05:09:45.796Z,9.60
2022-10-07T05:11:48.247Z,9.93
2022-10-07T05:13:49.868Z,10.13
2022-10-07T05:15:53.618Z,10.48
2022-10-07T05:17:56.043Z,10.10
2022-10-07T05:19:57.630Z,9.80
2022-10-07T05:21:59.606Z,10.15
2022-10-07T05:24:01.140Z,9.88
2022-10-07T05:26:08.043Z,10.68
2022-10-07T05:28:14.759Z,9.32
2022-10-07T05:30:17.380Z,8.00
2022-10-07T05:32:19.053Z,8.40
2022-10-07T05:34:20.701Z,9.25
2022-10-07T05:36:22.301Z,9.48
2022-10-07T05:38:23.927Z,8.55
2022-10-07T05:40:25.725Z,8.55
2022-10-07T05:42:27.407Z,8.90
2022-10-07T05:44:31.420Z,8.90
2022-10-07T05:46:33.510Z,8.75
2022-10-07T05:48:39.243Z,9.10
2022-10-07T05:50:42.367Z,8.48
2022-10-07T05:52:45.396Z,8.52
2022-10-07T05:54:47.056Z,8.95
2022-10-07T05:56:49.646Z,7.40
2022-10-07T05:58:56.172Z,8.98
2022-10-07T06:01:03.998Z,8.63
2022-10-07T06:03:08.178Z,8.40
2022-10-07T06:05:10.181Z,7.80
2022-10-07T06:07:13.469Z,7.75
2022-10-07T06:09:36.009Z,7.25
2022-10-07T06:11:56.501Z,8.35
2022-10-07T06:13:58.215Z,8.02
2022-10-07T06:16:09.122Z,8.27
2022-10-07T06:18:10.772Z,7.55
2022-10-07T06:20:13.281Z,6.07
2022-10-07T06:22:15.020Z,5.50
2022-10-07T06:24:16.821Z,6.93
2022-10-07T06:26:18.816Z,5.97
2022-10-07T06:28:20.531Z,5.53
2022-10-07T06:30:22.254Z,6.07
2022-10-07T06:32:24.030Z,6.32
2022-10-07T06:34:25.663Z,23.27
2022-10-07T06:36:27.857Z,52.22
2022-10-07T06:38:29.426Z,40.67
2022-10-07T06:40:31.533Z,48.92
2022-10-07T06:42:33.173Z,46.00
2022-10-07T06:44:35.117Z,48.88
2022-10-07T06:46:36.945Z,43.67
2022-10-07T06:48:40.898Z,39.05
2022-10-07T06:50:50.928Z,31.45
2022-10-07T06:52:52.583Z,30.33
2022-10-07T06:54:54.162Z,21.08
2022-10-07T06:56:55.791Z,18.77
2022-10-07T06:58:57.641Z,16.45
2022-10-07T07:01:02.429Z,10.77
2022-10-07T07:03:04.337Z,9.18
2022-10-07T07:05:08.679Z,11.60
2022-10-07T07:07:10.391Z,10.35
2022-10-07T07:09:11.958Z,7.82
2022-10-07T07:11:32.794Z,8.75
2022-10-07T07:13:36.204Z,8.63
2022-10-07T07:15:38.969Z,8.07
2022-10-07T07:17:40.613Z,8.65
2022-10-07T07:19:42.820Z,8.68
2022-10-07T07:21:47.618Z,8.38
2022-10-07T07:23:53.751Z,7.93
2022-10-07T07:25:55.454Z,10.23
2022-10-07T07:28:00.819Z,9.52
2022-10-07T07:30:03.842Z,9.25
2022-10-07T07:32:06.299Z,8.90
2022-10-07T07:34:13.642Z,8.18
2022-10-07T07:36:16.600Z,7.85
2022-10-07T07:38:20.168Z,7.57
2022-10-07T07:40:23.729Z,6.88
2022-10-07T07:42:25.931Z,6.70
2022-10-07T07:44:33.997Z,7.40
2022-10-07T07:46:56.158Z,7.20
2022-10-07T07:48:58.646Z,6.70
2022-10-07T07:51:00.580Z,7.15
2022-10-07T07:53:04.522Z,8.70
2022-10-07T07:55:06.501Z,7.93
2022-10-07T07:57:08.414Z,7.80
2022-10-07T07:59:10.783Z,7.30
2022-10-07T08:01:18.689Z,6.93
2022-10-07T08:03:20.326Z,4.82
2022-10-07T08:05:24.039Z,4.90
2022-10-07T08:07:26.925Z,5.85
2022-10-07T08:09:28.583Z,5.72
2022-10-07T08:11:30.480Z,5.53
2022-10-07T08:13:33.135Z,6.18
2022-10-07T08:15:34.772Z,5.85
2022-10-07T08:17:36.444Z,6.53
2022-10-07T08:19:38.654Z,5.65
2022-10-07T08:21:40.517Z,5.63
2022-10-07T08:23:42.742Z,7.88
2022-10-07T08:25:44.420Z,5.78
2022-10-07T08:27:46.299Z,10.55
2022-10-07T08:29:48.030Z,4.90
2022-10-07T08:31:49.697Z,11.93
2022-10-07T08:33:51.391Z,4.90
2022-10-07T08:35:58.767Z,6.45
2022-10-07T08:38:00.368Z,6.90
2022-10-07T08:40:02.561Z,8.50
2022-10-07T08:42:26.389Z,5.78
2022-10-07T08:44:32.428Z,4.35
2022-10-07T08:46:36.146Z,3.88
2022-10-07T08:48:39.302Z,4.00
2022-10-07T08:50:41.009Z,4.18
2022-10-07T08:52:52.809Z,3.53
2022-10-07T08:54:54.625Z,4.53
2022-10-07T08:57:01.058Z,4.05
2022-10-07T08:59:09.709Z,3.20
2022-10-07T09:01:39.238Z,3.63
2022-10-07T09:03:44.002Z,3.03
2022-10-07T09:05:49.636Z,2.60
2022-10-07T09:07:57.524Z,3.35
2022-10-07T09:10:01.663Z,3.20
2022-10-07T09:12:05.533Z,4.03
2022-10-07T09:14:33.341Z,3.42
2022-10-07T09:16:38.641Z,2.92
2022-10-07T09:18:49.482Z,3.17
2022-10-07T09:21:12.796Z,3.20
2022-10-07T09:23:17.865Z,2.97
2022-10-07T09:25:25.337Z,2.70
2022-10-07T09:27:27.089Z,2.90
2022-10-07T09:29:30.059Z,3.33
2022-10-07T09:31:32.811Z,2.63
2022-10-07T09:33:42.483Z,2.60
2022-10-07T09:36:06.290Z,3.20
2022-10-07T09:38:09.232Z,3.13
2022-10-07T09:40:23.440Z,2.80
2022-10-07T09:42:28.764Z,3.50
2022-10-07T09:44:30.776Z,3.38
2022-10-07T09:46:49.280Z,3.50
2022-10-07T09:48:55.235Z,3.53
2022-10-07T09:51:18.245Z,2.83
2022-10-07T09:53:24.145Z,2.55
2022-10-07T09:55:40.228Z,2.65
2022-10-07T09:57:42.178Z,2.45
2022-10-07T09:59:43.934Z,2.75
2022-10-07T10:01:59.865Z,2.63
2022-10-07T10:04:01.626Z,2.90
2022-10-07T10:06:08.722Z,3.00
2022-10-07T10:08:13.302Z,2.83
2022-10-07T10:10:23.166Z,2.33
2022-10-07T10:12:25.489Z,2.47
2022-10-07T10:14:41.761Z,2.15
2022-10-07T10:16:46.820Z,2.10
2022-10-07T10:19:06.062Z,2.65
2022-10-07T10:21:35.924Z,2.30
2022-10-07T10:23:38.654Z,3.00
2022-10-07T10:26:12.497Z,2.30
2022-10-07T10:28:45.048Z,2.77
2022-10-07T10:30:52.963Z,2.97
2022-10-07T10:33:12.239Z,2.55
2022-10-07T10:35:29.500Z,2.47
2022-10-07T10:37:39.895Z,2.30
2022-10-07T10:39:59.463Z,2.40
2022-10-07T10:42:02.529Z,2.20
2022-10-07T10:44:23.256Z,2.13
2022-10-07T10:47:07.587Z,2.35
2022-10-07T10:49:36.601Z,1.92
2022-10-07T10:51:42.339Z,2.60
2022-10-07T10:53:57.228Z,2.10
2022-10-07T10:56:13.841Z,2.40
2022-10-07T10:58:45.065Z,2.38
2022-10-07T11:01:14.093Z,2.60
2022-10-07T11:03:32.759Z,2.67
2022-10-07T11:05:37.299Z,2.47
2022-10-07T11:07:50.073Z,2.60
2022-10-07T11:10:13.552Z,2.05
2022-10-07T11:12:46.739Z,1.87
2022-10-07T11:14:57.747Z,2.17
2022-10-07T11:17:03.849Z,2.15
2022-10-07T11:19:16.590Z,1.90
2022-10-07T11:21:33.666Z,1.85
2022-10-07T11:23:51.924Z,2.30
2022-10-07T11:26:06.255Z,2.30
2022-10-07T11:28:20.247Z,1.80
2022-10-07T11:32:36.042Z,1.60
2022-10-07T11:34:54.298Z,2.13
2022-10-07T11:37:06.313Z,1.92
2022-10-07T11:39:09.092Z,1.95
2022-10-07T11:41:51.117Z,1.77
2022-10-07T11:43:57.309Z,2.05
2022-10-07T11:46:11.527Z,1.80
2022-10-07T11:48:19.955Z,2.05
2022-10-07T11:50:28.981Z,1.75
2022-10-07T11:52:37.093Z,1.80
2022-10-07T11:54:50.360Z,4.80
2022-10-07T11:56:53.494Z,2.28
2022-10-07T11:59:01.132Z,1.98
2022-10-07T12:01:29.010Z,2.08
2022-10-07T12:03:30.579Z,1.95
2022-10-07T12:05:35.252Z,1.67
2022-10-07T12:07:38.211Z,2.03
2022-10-07T12:09:54.430Z,1.98
2022-10-07T12:11:56.690Z,1.73
2022-10-07T12:14:38.450Z,2.10
2022-10-07T12:16:43.151Z,1.60
2022-10-07T12:19:07.970Z,1.80
2022-10-07T12:21:28.144Z,3.90
2022-10-07T12:23:36.343Z,2.35
2022-10-07T12:25:42.619Z,2.65
2022-10-07T12:27:46.398Z,1.75
2022-10-07T12:29:58.790Z,2.13
2022-10-07T12:32:00.747Z,2.03
2022-10-07T12:34:05.230Z,2.30
2022-10-07T12:36:18.658Z,1.88
2022-10-07T12:38:28.747Z,1.63
2022-10-07T12:40:30.658Z,1.90
2022-10-07T12:42:32.405Z,2.15
2022-10-07T12:44:39.382Z,5.00
2022-10-07T12:46:41.009Z,1.90
2022-10-07T12:49:06.464Z,2.10
2022-10-07T12:51:18.469Z,1.65
2022-10-07T12:53:24.633Z,1.83
2022-10-07T12:55:39.990Z,2.05
2022-10-07T12:57:43.399Z,2.00
2022-10-07T13:00:08.360Z,1.83
2022-10-07T13:02:47.876Z,1.90
2022-10-07T13:05:20.677Z,1.77
2022-10-07T13:07:54.819Z,1.58
2022-10-07T13:10:15.037Z,1.77
2022-10-07T13:12:26.178Z,1.70
2022-10-07T13:15:03.424Z,1.73
2022-10-07T13:17:27.821Z,1.80
2022-10-07T13:21:47.343Z,2.40
2022-10-07T13:23:52.962Z,1.92
2022-10-07T13:25:56.509Z,1.70
2022-10-07T13:27:59.305Z,1.50
2022-10-07T13:30:02.888Z,1.60
2022-10-07T13:34:18.065Z,1.70
2022-10-07T13:36:25.714Z,1.90
2022-10-07T13:38:28.542Z,1.90
2022-10-07T13:40:35.564Z,1.48
2022-10-07T13:42:37.284Z,1.73
2022-10-07T13:44:43.624Z,1.50
2022-10-07T13:47:00.068Z,1.48
2022-10-07T13:49:03.206Z,1.33
2022-10-07T13:51:05.632Z,2.20
2022-10-07T13:53:16.907Z,2.17
2022-10-07T13:55:38.741Z,1.45
2022-10-07T13:57:44.023Z,2.30
2022-10-07T13:59:47.130Z,1.75
2022-10-07T14:01:58.214Z,2.10
2022-10-07T14:04:20.263Z,2.05
2022-10-07T14:06:51.396Z,1.88
2022-10-07T14:08:52.966Z,1.98
2022-10-07T14:11:07.954Z,2.72
2022-10-07T14:13:15.671Z,2.25
2022-10-07T14:15:21.138Z,2.25
2022-10-07T14:17:28.364Z,2.70
2022-10-07T14:19:33.102Z,1.58
2022-10-07T14:21:40.633Z,2.00
2022-10-07T14:23:42.333Z,1.90
2022-10-07T14:26:06.323Z,2.40
2022-10-07T14:28:30.138Z,1.90
2022-10-07T14:30:56.069Z,2.25
2022-10-07T14:33:22.924Z,2.28
2022-10-07T14:35:26.985Z,1.90
2022-10-07T14:37:31.797Z,1.90
2022-10-07T14:39:40.698Z,2.15
2022-10-07T14:41:42.254Z,2.13
2022-10-07T14:43:45.499Z,2.28
2022-10-07T14:45:47.141Z,2.13
2022-10-07T14:47:49.639Z,2.15
2022-10-07T14:49:55.426Z,2.08
2022-10-07T14:51:57.333Z,2.13
2022-10-07T14:54:05.133Z,2.05
2022-10-07T14:56:07.026Z,2.60
2022-10-07T14:58:11.960Z,2.50
2022-10-07T15:00:22.624Z,2.05
2022-10-07T15:02:24.201Z,2.65
2022-10-07T15:04:25.899Z,2.05
2022-10-07T15:06:28.436Z,2.50
2022-10-07T15:08:31.568Z,2.38
2022-10-07T15:10:33.365Z,2.55
2022-10-07T15:12:34.921Z,3.00
2022-10-07T15:14:55.336Z,2.58
2022-10-07T15:16:57.725Z,2.72
2022-10-07T15:18:59.407Z,2.60
2022-10-07T15:21:00.962Z,3.08
2022-10-07T15:23:02.718Z,3.17
2022-10-07T15:25:06.102Z,3.08
2022-10-07T15:27:09.856Z,2.45
2022-10-07T15:29:13.521Z,2.97
2022-10-07T15:31:15.142Z,2.72
2022-10-07T15:33:16.722Z,3.08
2022-10-07T15:35:18.551Z,2.78
2022-10-07T15:37:21.333Z,3.58
2022-10-07T15:39:22.903Z,2.87
2022-10-07T15:41:41.672Z,3.50
2022-10-07T15:43:43.209Z,2.85
2022-10-07T15:45:45.059Z,2.83
2022-10-07T15:47:46.767Z,3.35
2022-10-07T15:49:49.652Z,2.67
2022-10-07T15:51:51.290Z,3.13
2022-10-07T15:53:54.113Z,3.10
2022-10-07T15:55:57.124Z,3.93
2022-10-07T15:57:59.053Z,3.50
2022-10-07T16:00:01.700Z,3.50
2022-10-07T16:02:05.729Z,3.13
2022-10-07T16:04:11.678Z,2.90
2022-10-07T16:06:16.330Z,3.05
2022-10-07T16:08:17.880Z,3.22
2022-10-07T16:10:19.436Z,2.88
2022-10-07T16:12:21.538Z,3.47
2022-10-07T16:14:23.196Z,3.20
2022-10-07T16:16:26.881Z,3.83
2022-10-07T16:20:31.564Z,2.45
2022-10-07T16:22:33.243Z,2.72
2022-10-07T16:24:35.602Z,2.90
2022-10-07T16:26:37.557Z,3.00
2022-10-07T16:28:58.489Z,2.70
2022-10-07T16:31:00.135Z,3.17
2022-10-07T16:33:01.755Z,3.05
2022-10-07T16:35:03.554Z,3.20
2022-10-07T16:37:05.804Z,3.40
2022-10-07T16:39:10.706Z,3.22
2022-10-07T16:41:12.410Z,3.58
2022-10-07T16:43:13.986Z,4.03
2022-10-07T16:45:16.593Z,3.88
2022-10-07T16:47:18.324Z,5.00
2022-10-07T16:49:19.879Z,4.85
2022-10-07T16:51:36.351Z,5.38
2022-10-07T16:53:39.433Z,3.88
2022-10-07T16:55:41.244Z,3.58
2022-10-07T16:57:42.988Z,6.07
2022-10-07T16:59:44.748Z,5.15
2022-10-07T17:01:46.583Z,4.28
2022-10-07T17:03:49.959Z,9.90
2022-10-07T17:05:58.204Z,5.65
2022-10-07T17:07:59.816Z,6.60
2022-10-07T17:10:01.493Z,13.27
2022-10-07T17:12:04.662Z,12.27
2022-10-07T17:14:17.082Z,12.88
2022-10-07T17:16:18.770Z,7.47
2022-10-07T17:18:20.801Z,6.32
2022-10-07T17:20:23.116Z,6.47
2022-10-07T17:22:24.714Z,6.00
2022-10-07T17:24:27.078Z,6.55
2022-10-07T17:26:29.841Z,6.32
2022-10-07T17:28:31.445Z,7.38
2022-10-07T17:30:33.821Z,7.35
2022-10-07T17:32:35.393Z,7.82
2022-10-07T17:34:38.363Z,8.05
2022-10-07T17:36:43.928Z,8.60
2022-10-07T17:38:45.475Z,9.13
2022-10-07T17:40:47.067Z,8.93
2022-10-07T17:42:48.708Z,10.82
2022-10-07T17:44:50.472Z,10.57
2022-10-07T17:46:52.319Z,11.32
2022-10-07T17:48:57.403Z,15.45
2022-10-07T17:51:05.862Z,21.33
2022-10-07T17:53:07.567Z,35.42
2022-10-07T17:55:09.745Z,37.90
2022-10-07T17:57:11.306Z,35.28
2022-10-07T17:59:14.372Z,27.88
2022-10-07T18:01:27.137Z,24.35
2022-10-07T18:03:28.769Z,15.50
2022-10-07T18:05:30.331Z,16.85
2022-10-07T18:07:32.025Z,20.67
2022-10-07T18:09:33.830Z,15.52
2022-10-07T18:11:54.539Z,12.50
2022-10-07T18:14:14.477Z,11.15
2022-10-07T18:16:16.652Z,11.80
2022-10-07T18:18:18.263Z,12.45
2022-10-07T18:20:21.886Z,13.35
2022-10-07T18:22:24.415Z,13.65
2022-10-07T18:24:28.914Z,15.70
2022-10-07T18:26:30.657Z,19.45
2022-10-07T18:28:34.438Z,23.98
2022-10-07T18:32:37.429Z,32.03
2022-10-07T18:34:39.307Z,20.42
2022-10-07T18:36:40.957Z,28.92
2022-10-07T18:38:44.331Z,25.70
2022-10-07T18:40:45.969Z,31.95
2022-10-07T18:42:47.547Z,19.17
2022-10-07T18:44:50.596Z,14.00
2022-10-07T18:46:52.461Z,11.40
2022-10-07T18:48:54.286Z,10.10
2022-10-07T18:50:55.855Z,9.63
2022-10-07T18:52:57.622Z,9.98
2022-10-07T18:54:59.160Z,9.35
2022-10-07T18:57:00.831Z,9.23
2022-10-07T18:59:02.616Z,8.77
2022-10-07T19:01:24.422Z,8.40
2022-10-07T19:03:26.129Z,7.72
2022-10-07T19:05:33.620Z,8.98
2022-10-07T19:07:35.521Z,8.00
2022-10-07T19:09:37.131Z,7.82
2022-10-07T19:11:38.717Z,8.00
2022-10-07T19:13:50.150Z,8.88
2022-10-07T19:15:52.216Z,8.50
2022-10-07T19:17:53.792Z,8.25
2022-10-07T19:19:57.838Z,8.93
2022-10-07T19:21:59.878Z,8.60
2022-10-07T19:24:02.779Z,9.30
2022-10-07T19:26:04.381Z,9.27
2022-10-07T19:28:06.281Z,9.98
2022-10-07T19:30:08.763Z,10.68
2022-10-07T19:32:10.404Z,9.13
2022-10-07T19:34:20.544Z,9.45
2022-10-07T19:36:23.285Z,8.65
2022-10-07T19:38:24.960Z,9.52
2022-10-07T19:40:26.600Z,8.93
2022-10-07T19:42:28.709Z,9.40
2022-10-07T19:44:33.681Z,7.65
2022-10-07T19:46:35.517Z,7.30
2022-10-07T19:48:37.375Z,7.40
2022-10-07T19:50:39.111Z,6.82
2022-10-07T19:52:40.905Z,6.25
2022-10-07T19:54:45.811Z,5.80
2022-10-07T19:56:47.418Z,6.35
2022-10-07T19:59:00.550Z,6.57
2022-10-07T20:01:06.641Z,5.45
2022-10-07T20:03:08.693Z,5.60
2022-10-07T20:05:10.285Z,10.43
2022-10-07T20:07:12.191Z,10.10
2022-10-07T20:09:16.512Z,11.35
2022-10-07T20:11:18.134Z,8.25
2022-10-07T20:13:19.729Z,7.45
2022-10-07T20:15:23.231Z,6.57
2022-10-07T20:17:24.788Z,6.90
2022-10-07T20:19:26.401Z,6.78
2022-10-07T20:21:28.558Z,6.90
2022-10-07T20:23:34.472Z,6.78
2022-10-07T20:25:39.110Z,6.15
2022-10-07T20:27:40.921Z,6.88
2022-10-07T20:29:57.768Z,6.85
2022-10-07T20:31:59.387Z,7.50
2022-10-07T20:34:01.784Z,7.43
2022-10-07T20:36:04.047Z,7.53
2022-10-07T20:38:05.640Z,7.30
2022-10-07T20:40:26.438Z,7.80
2022-10-07T20:42:29.765Z,7.10
2022-10-07T20:44:31.407Z,7.07
2022-10-07T20:46:33.609Z,6.70
2022-10-07T20:48:35.924Z,7.65
2022-10-07T20:50:39.398Z,7.93
2022-10-07T20:52:41.312Z,7.78
2022-10-07T20:54:43.677Z,6.30
2022-10-07T20:56:45.645Z,6.88
2022-10-07T20:58:47.459Z,7.22
2022-10-07T21:00:49.001Z,6.78
2022-10-07T21:02:51.127Z,6.88
2022-10-07T21:04:53.417Z,7.22
2022-10-07T21:06:58.166Z,7.45
2022-10-07T21:08:59.890Z,8.05
2022-10-07T21:11:02.514Z,7.25
2022-10-07T21:13:04.135Z,7.50
2022-10-07T21:15:06.883Z,7.63
2022-10-07T21:17:08.777Z,7.90
2022-10-07T21:19:10.372Z,8.70
2022-10-07T21:21:11.978Z,9.15
2022-10-07T21:23:13.572Z,7.40
2022-10-07T21:25:15.497Z,7.35
2022-10-07T21:27:17.218Z,8.30
2022-10-07T21:29:19.024Z,8.13
2022-10-07T21:31:22.385Z,8.00
2022-10-07T21:33:24.311Z,7.38
2022-10-07T21:35:25.911Z,7.90
2022-10-07T21:37:29.662Z,7.00
2022-10-07T21:41:34.997Z,7.78
2022-10-07T21:43:36.540Z,7.40
2022-10-07T21:45:39.289Z,10.10
2022-10-07T21:47:41.056Z,16.90
2022-10-07T21:49:42.640Z,15.50
2022-10-07T21:51:44.748Z,8.70
2022-10-07T21:53:53.271Z,8.45
2022-10-07T21:55:54.936Z,8.05
2022-10-07T21:57:56.697Z,8.15
2022-10-07T21:59:58.409Z,7.53
2022-10-07T22:02:00.034Z,7.78
2022-10-07T22:04:02.528Z,7.57
2022-10-07T22:06:06.176Z,8.13
2022-10-07T22:08:30.926Z,8.80
2022-10-07T22:10:32.546Z,8.25
2022-10-07T22:12:34.334Z,7.72
2022-10-07T22:14:35.991Z,8.43
2022-10-07T22:16:37.825Z,8.50
2022-10-07T22:18:39.537Z,7.88
2022-10-07T22:20:41.546Z,7.70
2022-10-07T22:22:43.366Z,8.07
2022-10-07T22:24:45.157Z,9.05
2022-10-07T22:26:48.033Z,8.15
2022-10-07T22:28:50.038Z,8.43
2022-10-07T22:30:51.920Z,7.03
2022-10-07T22:32:53.760Z,7.18
2022-10-07T22:35:13.915Z,7.60
2022-10-07T22:37:15.573Z,6.97
2022-10-07T22:39:17.162Z,6.57
2022-10-07T22:41:19.494Z,6.32
2022-10-07T22:43:21.123Z,8.32
2022-10-07T22:45:22.700Z,8.00
2022-10-07T22:47:24.833Z,8.75
2022-10-07T22:49:29.785Z,9.20
2022-10-07T22:51:31.973Z,9.13
2022-10-07T22:53:36.856Z,8.85
2022-10-07T22:55:38.549Z,9.35
2022-10-07T22:57:40.180Z,8.05
2022-10-07T22:59:41.804Z,7.65
2022-10-07T23:01:43.367Z,8.00
2022-10-07T23:03:45.711Z,6.82
2022-10-07T23:05:50.525Z,7.68
2022-10-07T23:07:52.570Z,6.60
2022-10-07T23:09:54.403Z,7.57
2022-10-07T23:11:56.041Z,7.47
2022-10-07T23:13:57.973Z,8.05
2022-10-07T23:16:04.746Z,7.88
2022-10-07T23:18:06.401Z,7.88
2022-10-07T23:20:08.321Z,8.45
2022-10-07T23:22:10.030Z,8.77
2022-10-07T23:24:11.923Z,8.77
2022-10-07T23:26:18.939Z,8.70
2022-10-07T23:28:22.055Z,8.45
2022-10-07T23:30:23.936Z,8.70
2022-10-07T23:32:25.505Z,8.48
2022-10-07T23:34:27.448Z,8.20
2022-10-07T23:36:30.053Z,8.02
2022-10-07T23:38:35.926Z,7.72
2022-10-07T23:40:37.529Z,8.23
2022-10-07T23:42:39.190Z,8.43
2022-10-07T23:44:40.802Z,7.50
2022-10-07T23:46:42.515Z,8.38
2022-10-07T23:48:44.432Z,8.98
2022-10-07T23:50:50.380Z,8.95
2022-10-07T23:52:52.023Z,9.27
2022-10-07T23:54:53.649Z,9.13
2022-10-07T23:56:55.252Z,7.90
2022-10-07T23:58:56.916Z,8.70
